首页
METAR-TAF:

METAR-TAF

机场 :

伊瓜苏, 巴拉那州, 巴西

纬度: 25-31S, 经度: 054-35W, 海拔: 180米

当前天气观测

该预报发布于8分钟前的22:00 UTC
风速6节,风向
温度 25°C
湿度 69%
气压 1010 hPa
能见度10公里或以上
1500米以下无云,无积雨云

METAR: SBFI 262200Z 18006KT CAVOK 25/19 Q1010

时间: 19:08 (22:08 UTC)

预报

该预报发布于6小时和38分钟前的15:30 UTC
预报有效从26日的 18点(UTC)到 27日的 18点(UTC)
风速7节,风向
能见度10公里或以上
散云层高于2000英尺
成为
从 26日的 20点(UTC)到 26日的 22点(UTC)
能见度10公里或以上
1500米以下无云,无积雨云
几率 40%
从 27日的 08点(UTC)到 27日的 11点(UTC)
能見度: 3000
碎片雾, 轻雾

TAF: SBFI 261530Z 2618/2718 19007KT 9999 SCT020 TN16/2709Z TX29/2718Z BECMG 2620/2622 CAVOK PROB40 2708/2711 3000 BCFG BR NSC RMK PDW

超过4000个机场的气象观测和天气预报(METAR&TAF报告)。

可查询的气象台以黄色和红色小点在地图上表示。

将鼠标移到小点上方,可查看气象台名称。

然后点击查看天气观测和预报。

如需切换地图:点击带黑十字的绿色按钮放大地图;点击带横线的绿色按钮缩小地图;或者点击绿色箭头查看邻近地区的地图。


METAR-TAF: